aviador You're here:

KATL Decoded Metar

ATLANTA in GA, USA
Report Time2017-09-26 02:52:00
UTC Time2017-09-26 03:47:14
Flight Rules vfr VFR
Wind090° at 03 kt
W.Decomp.*RWY 10: 3.0 kt HW 0.3 kt LCW
RWY 09: 3.0 kt HW 0.3 kt RCW
RWY 08: 2.9 kt HW 0.8 kt RCW
W.Rank090° ranks 4
Current wind is below 090° avg. (8.0)
Visibility9999 m
Phenomena:N/A
Clouds:N/A
Expected CloudBase > 3,600 ft AGL from Temp-Dew spread
CeilingNone
Temp25°C (ISA +12)
Dew Point16°C (57% RH)
QNH1015 hPa
Density Alt2,530 ft
Elevation971 ft
Report Wrong Elevation
Raw Report
KATL 260252Z 09003KT 10SM CLR 25/16 A2997 RMK AO2 SLP140 T02500161
51009=

Extra information for KATL:More info

Metar Taf Metar & Taf Last 4 Metars F.Rules Stats Wind Profile Meteogram Temp Stats Airport Information Weather charts Add Link Nearby VenuesMetar ALERT Operation Metar Decoded Social comments

AIRNAV info for KATL